createdAt,value
2023-04-16T00:01:56.638Z,100445.56
2023-04-16T00:03:59.591Z,100444.97
2023-04-16T00:06:04.467Z,100450.28
2023-04-16T00:08:07.531Z,100449.91
2023-04-16T00:10:10.549Z,100451.44
2023-04-16T00:12:13.319Z,100452.41
2023-04-16T00:14:16.130Z,100454.41
2023-04-16T00:16:18.880Z,100460.50
2023-04-16T00:18:21.714Z,100455.81
2023-04-16T00:20:24.403Z,100446.88
2023-04-16T00:22:27.208Z,100451.44
2023-04-16T00:24:29.899Z,100446.28
2023-04-16T00:26:32.638Z,100438.59
2023-04-16T00:28:35.481Z,100437.09
2023-04-16T00:30:38.286Z,100443.19
2023-04-16T00:32:41.136Z,100441.31
2023-04-16T00:34:44.031Z,100452.72
2023-04-16T00:36:46.786Z,100444.03
2023-04-16T00:38:49.476Z,100441.78
2023-04-16T00:40:52.209Z,100451.91
2023-04-16T00:42:55.041Z,100445.47
2023-04-16T00:44:57.728Z,100453.78
2023-04-16T00:47:00.658Z,100451.09
2023-04-16T00:49:04.125Z,100442.50
2023-04-16T00:51:07.828Z,100452.03
2023-04-16T00:53:10.748Z,100447.47
2023-04-16T00:55:13.772Z,100453.31
2023-04-16T00:57:17.329Z,100457.53
2023-04-16T00:59:20.388Z,100456.38
2023-04-16T01:01:23.345Z,100446.97
2023-04-16T01:03:41.586Z,100459.41
2023-04-16T01:05:46.191Z,100458.59
2023-04-16T01:07:49.065Z,100458.59
2023-04-16T01:09:51.870Z,100456.97
2023-04-16T01:11:54.642Z,100460.38
2023-04-16T01:13:57.486Z,100462.69
2023-04-16T01:16:01.709Z,100449.38
2023-04-16T01:18:15.128Z,100458.31
2023-04-16T01:20:18.001Z,100455.84
2023-04-16T01:22:20.887Z,100461.94
2023-04-16T01:24:23.653Z,100464.03
2023-04-16T01:26:26.451Z,100463.31
2023-04-16T01:28:29.283Z,100460.63
2023-04-16T01:30:32.017Z,100466.50
2023-04-16T01:32:34.832Z,100465.88
2023-04-16T01:34:37.548Z,100463.66
2023-04-16T01:36:40.330Z,100477.38
2023-04-16T01:38:43.351Z,100467.66
2023-04-16T01:40:46.065Z,100467.41
2023-04-16T01:42:48.738Z,100466.34
2023-04-16T01:44:51.545Z,100468.81
2023-04-16T01:46:54.849Z,100472.81
2023-04-16T01:48:58.574Z,100474.31
2023-04-16T01:51:01.400Z,100469.38
2023-04-16T01:53:05.355Z,100471.59
2023-04-16T01:55:08.652Z,100466.56
2023-04-16T01:57:11.481Z,100467.53
2023-04-16T01:59:14.325Z,100457.41
2023-04-16T02:01:17.262Z,100467.53
2023-04-16T02:03:20.266Z,100472.13
2023-04-16T02:05:23.372Z,100470.47
2023-04-16T02:07:27.593Z,100482.31
2023-04-16T02:09:30.318Z,100480.22
2023-04-16T02:11:33.069Z,100485.63
2023-04-16T02:13:35.941Z,100496.91
2023-04-16T02:15:38.847Z,100481.84
2023-04-16T02:17:41.832Z,100492.19
2023-04-16T02:19:44.785Z,100467.06
2023-04-16T02:21:48.014Z,100497.59
2023-04-16T02:23:52.003Z,100491.97
2023-04-16T02:25:54.967Z,100492.53
2023-04-16T02:27:57.982Z,100503.13
2023-04-16T02:30:00.991Z,100497.50
2023-04-16T02:32:03.890Z,100494.56
2023-04-16T02:34:07.141Z,100495.41
2023-04-16T02:36:11.467Z,100485.97
2023-04-16T02:38:14.416Z,100493.50
2023-04-16T02:40:17.388Z,100490.81
2023-04-16T02:42:20.048Z,100498.44
2023-04-16T02:44:22.948Z,100504.44
2023-04-16T02:46:26.067Z,100504.66
2023-04-16T02:48:29.097Z,100503.25
2023-04-16T02:50:31.998Z,100514.81
2023-04-16T02:52:34.688Z,100506.94
2023-04-16T02:54:37.365Z,100512.69
2023-04-16T02:56:40.215Z,100509.78
2023-04-16T02:58:42.966Z,100512.47
2023-04-16T03:00:45.907Z,100512.22
2023-04-16T03:02:48.961Z,100506.38
2023-04-16T03:04:51.801Z,100515.09
2023-04-16T03:06:54.531Z,100503.00
2023-04-16T03:08:59.016Z,100507.13
2023-04-16T03:11:01.800Z,100506.63
2023-04-16T03:13:05.055Z,100505.59
2023-04-16T03:15:08.353Z,100504.53
2023-04-16T03:17:11.162Z,100510.06
2023-04-16T03:19:13.903Z,100505.25
2023-04-16T03:21:16.647Z,100511.59
2023-04-16T03:23:19.856Z,100511.78
2023-04-16T03:25:22.581Z,100507.19
2023-04-16T03:27:25.609Z,100504.59
2023-04-16T03:29:28.649Z,100512.59
2023-04-16T03:31:31.636Z,100508.13
2023-04-16T03:33:34.410Z,100514.75
2023-04-16T03:35:37.210Z,100520.53
2023-04-16T03:37:39.884Z,100524.75
2023-04-16T03:39:42.566Z,100518.66
2023-04-16T03:41:45.380Z,100517.69
2023-04-16T03:43:48.046Z,100519.47
2023-04-16T03:45:51.147Z,100514.66
2023-04-16T03:47:54.008Z,100519.97
2023-04-16T03:49:56.930Z,100531.72
2023-04-16T03:51:59.875Z,100529.94
2023-04-16T03:54:02.593Z,100527.72
2023-04-16T03:56:05.539Z,100527.00
2023-04-16T03:58:08.544Z,100529.22
2023-04-16T04:00:11.957Z,100534.06
2023-04-16T04:02:14.730Z,100521.22
2023-04-16T04:04:17.862Z,100527.34
2023-04-16T04:06:20.721Z,100528.47
2023-04-16T04:08:23.522Z,100524.25
2023-04-16T04:10:26.604Z,100525.75
2023-04-16T04:12:29.198Z,100522.44
2023-04-16T04:14:32.563Z,100519.56
2023-04-16T04:16:35.726Z,100525.13
2023-04-16T04:18:38.428Z,100526.63
2023-04-16T04:20:41.608Z,100519.38
2023-04-16T04:22:44.454Z,100526.66
2023-04-16T04:24:47.121Z,100514.25
2023-04-16T04:26:49.902Z,100517.97
2023-04-16T04:28:52.700Z,100519.94
2023-04-16T04:30:55.482Z,100520.38
2023-04-16T04:32:58.592Z,100521.25
2023-04-16T04:35:03.015Z,100518.09
2023-04-16T04:37:08.614Z,100519.06
2023-04-16T04:39:11.418Z,100521.13
2023-04-16T04:41:14.262Z,100520.47
2023-04-16T04:43:19.216Z,100514.59
2023-04-16T04:45:25.641Z,100516.94
2023-04-16T04:47:28.538Z,100506.75
2023-04-16T04:49:31.423Z,100514.50
2023-04-16T04:51:34.228Z,100515.13
2023-04-16T04:53:36.907Z,100521.16
2023-04-16T04:55:40.632Z,100518.75
2023-04-16T04:57:43.551Z,100521.22
2023-04-16T04:59:46.448Z,100516.09
2023-04-16T05:01:49.714Z,100510.00
2023-04-16T05:03:52.673Z,100513.19
2023-04-16T05:05:55.429Z,100512.41
2023-04-16T05:07:58.305Z,100521.22
2023-04-16T05:10:00.990Z,100517.25
2023-04-16T05:12:04.917Z,100508.28
2023-04-16T05:14:07.914Z,100518.63
2023-04-16T05:16:10.920Z,100518.47
2023-04-16T05:18:13.786Z,100519.31
2023-04-16T05:20:16.530Z,100513.31
2023-04-16T05:22:19.301Z,100515.47
2023-04-16T05:24:22.672Z,100501.63
2023-04-16T05:26:28.506Z,100521.22
2023-04-16T05:28:31.548Z,100519.50
2023-04-16T05:30:34.281Z,100515.78
2023-04-16T05:32:41.191Z,100520.47
2023-04-16T05:34:43.972Z,100514.38
2023-04-16T05:36:47.293Z,100509.56
2023-04-16T05:39:08.143Z,100514.06
2023-04-16T05:41:11.271Z,100507.31
2023-04-16T05:43:14.006Z,100513.38
2023-04-16T05:45:17.339Z,100513.75
2023-04-16T05:47:20.173Z,100513.59
2023-04-16T05:49:23.162Z,100507.69
2023-04-16T05:51:28.132Z,100501.44
2023-04-16T05:53:30.998Z,100496.34
2023-04-16T05:55:34.336Z,100493.75
2023-04-16T05:57:40.093Z,100488.63
2023-04-16T05:59:42.790Z,100489.72
2023-04-16T06:01:45.632Z,100486.25
2023-04-16T06:03:48.536Z,100486.59
2023-04-16T06:05:51.772Z,100487.19
2023-04-16T06:07:54.672Z,100482.09
2023-04-16T06:09:57.387Z,100486.78
2023-04-16T06:12:01.329Z,100486.78
2023-04-16T06:14:04.306Z,100486.31
2023-04-16T06:16:07.204Z,100483.56
2023-04-16T06:18:12.649Z,100484.72
2023-04-16T06:20:15.598Z,100493.44
2023-04-16T06:22:18.475Z,100482.25
2023-04-16T06:24:21.462Z,100481.47
2023-04-16T06:26:24.356Z,100482.34
2023-04-16T06:28:27.470Z,100488.88
2023-04-16T06:30:30.539Z,100483.47
2023-04-16T06:32:33.460Z,100483.75
2023-04-16T06:34:37.758Z,100474.50
2023-04-16T06:36:40.543Z,100466.56
2023-04-16T06:38:43.426Z,100472.63
2023-04-16T06:40:46.217Z,100473.16
2023-04-16T06:42:49.093Z,100474.78
2023-04-16T06:44:52.065Z,100461.69
2023-04-16T06:46:54.965Z,100470.44
2023-04-16T06:48:57.742Z,100468.53
2023-04-16T06:51:00.777Z,100462.53
2023-04-16T06:53:04.012Z,100464.72
2023-04-16T06:55:10.025Z,100462.78
2023-04-16T06:57:12.872Z,100467.41
2023-04-16T06:59:15.995Z,100460.59
2023-04-16T07:01:19.037Z,100462.75
2023-04-16T07:03:22.185Z,100458.09
2023-04-16T07:05:25.198Z,100455.59
2023-04-16T07:07:28.026Z,100455.28
2023-04-16T07:09:30.741Z,100469.75
2023-04-16T07:11:33.570Z,100471.91
2023-04-16T07:13:36.253Z,100463.69
2023-04-16T07:15:38.943Z,100455.22
2023-04-16T07:17:50.473Z,100461.00
2023-04-16T07:19:53.330Z,100457.94
2023-04-16T07:21:57.475Z,100458.72
2023-04-16T07:24:01.185Z,100454.88
2023-04-16T07:26:03.918Z,100447.19
2023-04-16T07:28:06.697Z,100448.75
2023-04-16T07:30:09.799Z,100448.44
2023-04-16T07:32:15.310Z,100445.38
2023-04-16T07:34:18.605Z,100438.47
2023-04-16T07:36:21.514Z,100443.38
2023-04-16T07:38:24.280Z,100449.09
2023-04-16T07:40:27.147Z,100448.88
2023-04-16T07:42:31.278Z,100445.50
2023-04-16T07:44:35.646Z,100444.41
2023-04-16T07:46:47.020Z,100444.69
2023-04-16T07:48:50.512Z,100443.53
2023-04-16T07:50:53.705Z,100433.94
2023-04-16T07:52:57.050Z,100439.63
2023-04-16T07:54:59.773Z,100427.03
2023-04-16T07:57:02.620Z,100432.59
2023-04-16T07:59:19.133Z,100440.47
2023-04-16T08:01:24.626Z,100439.19
2023-04-16T08:03:27.948Z,100423.22
2023-04-16T08:05:31.059Z,100446.44
2023-04-16T08:07:34.829Z,100432.75
2023-04-16T08:09:48.271Z,100435.97
2023-04-16T08:11:51.286Z,100437.56
2023-04-16T08:13:54.045Z,100423.53
2023-04-16T08:15:56.931Z,100424.88
2023-04-16T08:17:59.955Z,100421.28
2023-04-16T08:20:02.901Z,100418.81
2023-04-16T08:22:08.070Z,100416.38
2023-04-16T08:24:11.049Z,100418.00
2023-04-16T08:26:13.884Z,100423.72
2023-04-16T08:28:16.654Z,100417.91
2023-04-16T08:30:19.776Z,100417.91
2023-04-16T08:32:22.608Z,100416.34
2023-04-16T08:34:25.651Z,100427.53
2023-04-16T08:36:28.527Z,100419.44
2023-04-16T08:38:31.420Z,100411.06
2023-04-16T08:40:39.029Z,100420.09
2023-04-16T08:42:56.217Z,100415.41
2023-04-16T08:45:09.374Z,100421.03
2023-04-16T08:47:13.210Z,100422.38
2023-04-16T08:49:20.168Z,100435.91
2023-04-16T08:51:27.678Z,100425.34
2023-04-16T08:53:39.684Z,100423.69
2023-04-16T08:55:50.929Z,100430.38
2023-04-16T08:58:03.690Z,100432.06
2023-04-16T09:00:11.488Z,100421.25
2023-04-16T09:02:15.818Z,100420.66
2023-04-16T09:04:20.324Z,100423.31
2023-04-16T09:06:23.618Z,100429.06
2023-04-16T09:08:29.008Z,100430.91
2023-04-16T09:10:33.265Z,100428.22
2023-04-16T09:12:36.398Z,100425.63
2023-04-16T09:14:42.343Z,100421.81
2023-04-16T09:16:48.461Z,100424.75
2023-04-16T09:18:53.861Z,100420.38
2023-04-16T09:21:00.212Z,100412.81
2023-04-16T09:23:05.473Z,100419.25
2023-04-16T09:25:11.227Z,100407.91
2023-04-16T09:27:14.401Z,100432.25
2023-04-16T09:29:37.090Z,100420.22
2023-04-16T09:31:40.553Z,100408.97
2023-04-16T09:33:47.409Z,100409.97
2023-04-16T09:35:53.829Z,100413.66
2023-04-16T09:37:58.292Z,100412.00
2023-04-16T09:40:05.121Z,100406.22
2023-04-16T09:42:11.850Z,100410.94
2023-04-16T09:44:14.852Z,100416.44
2023-04-16T09:46:18.674Z,100408.66
2023-04-16T09:48:32.597Z,100417.59
2023-04-16T09:50:35.611Z,100422.00
2023-04-16T09:52:39.658Z,100416.41
2023-04-16T09:55:01.519Z,100421.91
2023-04-16T09:57:06.585Z,100419.13
2023-04-16T09:59:17.819Z,100417.66
2023-04-16T10:01:32.970Z,100399.50
2023-04-16T10:03:39.357Z,100413.34
2023-04-16T10:05:42.624Z,100424.00
2023-04-16T10:07:45.353Z,100425.09
2023-04-16T10:09:49.406Z,100417.22
2023-04-16T10:11:52.289Z,100416.53
2023-04-16T10:13:55.075Z,100422.34
2023-04-16T10:15:59.029Z,100417.13
2023-04-16T10:18:04.569Z,100417.41
2023-04-16T10:20:08.623Z,100417.69
2023-04-16T10:22:11.932Z,100416.00
2023-04-16T10:24:17.663Z,100426.63
2023-04-16T10:26:21.494Z,100418.59
2023-04-16T10:28:25.186Z,100413.63
2023-04-16T10:30:28.441Z,100421.28
2023-04-16T10:32:33.079Z,100426.38
2023-04-16T10:34:36.723Z,100416.59
2023-04-16T10:36:42.964Z,100420.78
2023-04-16T10:38:53.092Z,100416.50
2023-04-16T10:41:03.037Z,100409.56
2023-04-16T10:43:07.510Z,100414.78
2023-04-16T10:45:12.204Z,100414.25
2023-04-16T10:47:17.025Z,100416.00
2023-04-16T10:49:24.235Z,100411.69
2023-04-16T10:51:33.963Z,100410.88
2023-04-16T10:53:37.683Z,100412.41
2023-04-16T10:55:40.863Z,100420.56
2023-04-16T10:57:44.172Z,100413.41
2023-04-16T10:59:49.674Z,100413.31
2023-04-16T11:01:57.159Z,100416.53
2023-04-16T11:04:02.768Z,100406.00
2023-04-16T11:06:17.849Z,100408.69
2023-04-16T11:08:21.414Z,100414.75
2023-04-16T11:10:24.224Z,100416.19
2023-04-16T11:12:29.976Z,100409.63
2023-04-16T11:14:34.132Z,100403.56
2023-04-16T11:16:41.340Z,100406.88
2023-04-16T11:18:51.548Z,100406.19
2023-04-16T11:20:55.130Z,100407.31
2023-04-16T11:22:58.712Z,100420.28
2023-04-16T11:25:01.493Z,100398.91
2023-04-16T11:27:05.435Z,100404.25
2023-04-16T11:29:15.838Z,100412.00
2023-04-16T11:31:19.416Z,100412.66
2023-04-16T11:33:22.361Z,100403.91
2023-04-16T11:35:25.265Z,100400.59
2023-04-16T11:37:35.749Z,100413.03
2023-04-16T11:39:53.964Z,100398.22
2023-04-16T11:41:56.800Z,100396.19
2023-04-16T11:43:59.618Z,100390.63
2023-04-16T11:46:20.068Z,100396.41
2023-04-16T11:48:46.494Z,100405.19
2023-04-16T11:50:56.290Z,100398.19
2023-04-16T11:53:06.571Z,100394.13
2023-04-16T11:55:09.712Z,100397.59
2023-04-16T11:57:13.526Z,100391.72
2023-04-16T11:59:19.521Z,100386.50
2023-04-16T12:01:22.467Z,100387.16
2023-04-16T12:03:46.297Z,100400.19
2023-04-16T12:05:49.460Z,100389.13
2023-04-16T12:07:52.289Z,100382.13
2023-04-16T12:10:07.553Z,100392.88
2023-04-16T12:12:27.492Z,100378.00
2023-04-16T12:14:31.415Z,100367.94
2023-04-16T12:16:35.719Z,100374.47
2023-04-16T12:18:59.756Z,100384.75
2023-04-16T12:21:05.879Z,100374.38
2023-04-16T12:23:09.271Z,100383.28
2023-04-16T12:25:13.998Z,100385.69
2023-04-16T12:27:17.007Z,100390.75
2023-04-16T12:29:24.906Z,100369.47
2023-04-16T12:31:38.473Z,100358.94
2023-04-16T12:33:42.735Z,100371.66
2023-04-16T12:35:46.000Z,100380.00
2023-04-16T12:37:48.843Z,100374.94
2023-04-16T12:39:51.518Z,100378.41
2023-04-16T12:41:54.219Z,100389.16
2023-04-16T12:44:18.468Z,100369.78
2023-04-16T12:46:21.367Z,100381.16
2023-04-16T12:48:24.285Z,100372.91
2023-04-16T12:50:29.068Z,100375.38
2023-04-16T12:52:31.948Z,100377.44
2023-04-16T12:54:34.717Z,100375.03
2023-04-16T12:56:37.563Z,100383.69
2023-04-16T12:58:40.293Z,100372.72
2023-04-16T13:00:43.039Z,100375.75
2023-04-16T13:02:46.234Z,100370.25
2023-04-16T13:04:52.754Z,100373.13
2023-04-16T13:06:55.723Z,100378.75
2023-04-16T13:08:58.637Z,100372.25
2023-04-16T13:11:01.441Z,100367.06
2023-04-16T13:13:04.212Z,100371.19
2023-04-16T13:15:07.561Z,100364.69
2023-04-16T13:17:10.448Z,100350.03
2023-04-16T13:19:13.503Z,100356.28
2023-04-16T13:21:16.511Z,100362.69
2023-04-16T13:23:19.256Z,100369.31
2023-04-16T13:25:22.028Z,100364.88
2023-04-16T13:27:24.818Z,100363.09
2023-04-16T13:29:27.684Z,100358.91
2023-04-16T13:31:30.667Z,100360.88
2023-04-16T13:33:33.424Z,100364.13
2023-04-16T13:35:36.136Z,100349.19
2023-04-16T13:37:39.231Z,100354.06
2023-04-16T13:39:42.186Z,100354.50
2023-04-16T13:41:45.032Z,100358.28
2023-04-16T13:43:47.802Z,100352.56
2023-04-16T13:45:50.690Z,100357.78
2023-04-16T13:47:53.515Z,100357.25
2023-04-16T13:49:56.582Z,100348.59
2023-04-16T13:51:59.241Z,100356.19
2023-04-16T13:54:02.096Z,100367.53
2023-04-16T13:56:05.385Z,100365.75
2023-04-16T13:58:08.082Z,100353.06
2023-04-16T14:00:13.214Z,100361.22
2023-04-16T14:02:16.728Z,100341.63
2023-04-16T14:04:19.633Z,100348.72
2023-04-16T14:06:22.609Z,100344.06
2023-04-16T14:08:25.530Z,100355.81
2023-04-16T14:10:28.367Z,100350.34
2023-04-16T14:12:31.982Z,100339.72
2023-04-16T14:14:35.303Z,100348.72
2023-04-16T14:16:38.054Z,100345.16
2023-04-16T14:18:42.509Z,100360.41
2023-04-16T14:20:45.298Z,100353.94
2023-04-16T14:22:48.048Z,100353.13
2023-04-16T14:24:51.058Z,100348.63
2023-04-16T14:26:53.765Z,100351.41
2023-04-16T14:28:56.511Z,100355.16
2023-04-16T14:30:59.378Z,100356.50
2023-04-16T14:33:02.218Z,100360.06
2023-04-16T14:35:05.715Z,100360.31
2023-04-16T14:37:09.233Z,100354.78
2023-04-16T14:39:12.221Z,100354.53
2023-04-16T14:41:15.112Z,100349.06
2023-04-16T14:43:17.874Z,100354.06
2023-04-16T14:45:20.621Z,100352.00
2023-04-16T14:47:23.601Z,100349.97
2023-04-16T14:49:26.743Z,100361.59
2023-04-16T14:51:29.599Z,100351.75
2023-04-16T14:53:32.313Z,100352.56
2023-04-16T14:55:35.200Z,100357.66
2023-04-16T14:57:38.659Z,100360.16
2023-04-16T14:59:41.545Z,100365.28
2023-04-16T15:01:44.413Z,100360.03
2023-04-16T15:03:47.463Z,100376.66
2023-04-16T15:05:54.872Z,100367.03
2023-04-16T15:07:58.138Z,100369.19
2023-04-16T15:10:01.043Z,100369.13
2023-04-16T15:12:04.501Z,100356.63
2023-04-16T15:14:07.327Z,100367.94
2023-04-16T15:16:10.088Z,100370.38
2023-04-16T15:18:12.868Z,100365.03
2023-04-16T15:20:16.151Z,100370.47
2023-04-16T15:22:18.962Z,100377.03
2023-04-16T15:24:21.645Z,100371.91
2023-04-16T15:26:24.790Z,100371.38
2023-04-16T15:28:27.799Z,100373.00
2023-04-16T15:30:31.309Z,100370.22
2023-04-16T15:32:34.221Z,100370.47
2023-04-16T15:34:36.909Z,100372.63
2023-04-16T15:36:39.727Z,100382.31
2023-04-16T15:38:42.551Z,100372.97
2023-04-16T15:40:45.270Z,100382.75
2023-04-16T15:42:48.206Z,100378.09
2023-04-16T15:44:51.079Z,100375.63
2023-04-16T15:46:53.925Z,100374.63
2023-04-16T15:48:56.709Z,100376.03
2023-04-16T15:50:59.519Z,100379.19
2023-04-16T15:53:02.532Z,100372.44
2023-04-16T15:55:05.829Z,100384.06
2023-04-16T15:57:08.785Z,100381.72
2023-04-16T15:59:11.726Z,100381.09
2023-04-16T16:01:14.739Z,100383.72
2023-04-16T16:03:19.944Z,100387.16
2023-04-16T16:05:23.203Z,100391.22
2023-04-16T16:07:26.900Z,100387.41
2023-04-16T16:09:30.120Z,100395.75
2023-04-16T16:11:33.198Z,100400.22
2023-04-16T16:13:38.556Z,100399.16
2023-04-16T16:15:41.697Z,100399.78
2023-04-16T16:17:44.520Z,100402.88
2023-04-16T16:19:47.358Z,100391.16
2023-04-16T16:21:50.182Z,100402.50
2023-04-16T16:23:53.042Z,100401.75
2023-04-16T16:25:56.174Z,100401.63
2023-04-16T16:27:59.701Z,100400.84
2023-04-16T16:30:04.758Z,100403.91
2023-04-16T16:32:08.453Z,100403.47
2023-04-16T16:34:20.150Z,100415.34
2023-04-16T16:36:24.057Z,100405.25
2023-04-16T16:38:27.312Z,100397.66
2023-04-16T16:40:31.192Z,100399.38
2023-04-16T16:42:34.219Z,100402.47
2023-04-16T16:44:37.342Z,100413.72
2023-04-16T16:46:40.101Z,100412.97
2023-04-16T16:48:42.865Z,100419.03
2023-04-16T16:50:45.703Z,100412.53
2023-04-16T16:52:48.474Z,100413.16
2023-04-16T16:54:51.471Z,100408.25
2023-04-16T16:56:54.200Z,100413.81
2023-04-16T16:58:57.091Z,100416.00
2023-04-16T17:01:00.005Z,100418.81
2023-04-16T17:03:03.283Z,100409.28
2023-04-16T17:05:06.930Z,100413.41
2023-04-16T17:07:09.740Z,100418.44
2023-04-16T17:09:13.293Z,100420.09
2023-04-16T17:11:17.173Z,100424.50
2023-04-16T17:13:20.717Z,100427.00
2023-04-16T17:15:23.665Z,100427.31
2023-04-16T17:17:28.497Z,100421.56
2023-04-16T17:19:31.384Z,100427.38
2023-04-16T17:21:34.203Z,100434.56
2023-04-16T17:23:37.967Z,100437.56
2023-04-16T17:25:42.274Z,100432.38
2023-04-16T17:27:45.007Z,100433.53
2023-04-16T17:29:47.686Z,100433.53
2023-04-16T17:31:50.752Z,100433.81
2023-04-16T17:33:53.837Z,100442.91
2023-04-16T17:35:56.536Z,100438.00
2023-04-16T17:37:59.362Z,100434.72
2023-04-16T17:40:03.297Z,100436.13
2023-04-16T17:42:06.578Z,100425.22
2023-04-16T17:44:11.566Z,100432.06
2023-04-16T17:46:14.633Z,100432.66
2023-04-16T17:48:17.447Z,100432.44
2023-04-16T17:50:21.295Z,100430.78
2023-04-16T17:52:24.159Z,100433.56
2023-04-16T17:54:26.969Z,100432.50
2023-04-16T17:56:29.753Z,100434.69
2023-04-16T17:58:35.285Z,100435.84
2023-04-16T18:00:38.119Z,100435.59
2023-04-16T18:02:41.752Z,100440.56
2023-04-16T18:04:46.379Z,100441.09
2023-04-16T18:06:49.386Z,100443.88
2023-04-16T18:08:52.217Z,100449.34
2023-04-16T18:10:57.733Z,100444.72
2023-04-16T18:13:00.644Z,100446.09
2023-04-16T18:15:03.887Z,100457.06
2023-04-16T18:17:07.022Z,100445.88
2023-04-16T18:19:09.911Z,100455.47
2023-04-16T18:21:13.041Z,100454.97
2023-04-16T18:23:15.904Z,100445.94
2023-04-16T18:25:20.964Z,100455.25
2023-04-16T18:27:32.356Z,100453.06
2023-04-16T18:29:35.089Z,100452.53
2023-04-16T18:31:38.259Z,100447.38
2023-04-16T18:33:55.568Z,100449.25
2023-04-16T18:36:02.499Z,100447.66
2023-04-16T18:38:05.530Z,100449.59
2023-04-16T18:40:10.936Z,100443.28
2023-04-16T18:42:13.748Z,100437.28
2023-04-16T18:44:17.627Z,100445.47
2023-04-16T18:46:20.527Z,100439.75
2023-04-16T18:48:23.344Z,100443.56
2023-04-16T18:50:26.632Z,100440.31
2023-04-16T18:52:29.411Z,100440.84
2023-04-16T18:54:32.391Z,100446.63
2023-04-16T18:56:35.127Z,100439.81
2023-04-16T18:58:38.233Z,100435.97
2023-04-16T19:00:41.440Z,100443.91
2023-04-16T19:02:44.438Z,100436.53
2023-04-16T19:04:47.261Z,100433.53
2023-04-16T19:06:50.027Z,100434.91
2023-04-16T19:08:52.720Z,100431.63
2023-04-16T19:10:55.573Z,100440.66
2023-04-16T19:12:58.328Z,100441.47
2023-04-16T19:15:01.198Z,100443.13
2023-04-16T19:17:04.421Z,100446.41
2023-04-16T19:19:07.160Z,100451.59
2023-04-16T19:21:11.088Z,100451.88
2023-04-16T19:23:14.164Z,100453.78
2023-04-16T19:25:16.931Z,100451.03
2023-04-16T19:27:19.717Z,100446.41
2023-04-16T19:29:22.516Z,100451.84
2023-04-16T19:31:26.490Z,100446.94
2023-04-16T19:33:29.337Z,100448.31
2023-04-16T19:35:32.655Z,100448.88
2023-04-16T19:37:35.312Z,100447.22
2023-04-16T19:39:38.136Z,100446.13
2023-04-16T19:41:40.894Z,100454.06
2023-04-16T19:43:43.811Z,100445.88
2023-04-16T19:45:48.189Z,100441.75
2023-04-16T19:47:51.522Z,100450.22
2023-04-16T19:49:54.618Z,100450.19
2023-04-16T19:51:57.371Z,100446.91
2023-04-16T19:54:00.168Z,100448.00
2023-04-16T19:56:03.160Z,100455.09
2023-04-16T19:58:06.714Z,100438.16
2023-04-16T20:00:11.938Z,100458.59
2023-04-16T20:02:14.866Z,100461.88
2023-04-16T20:04:17.746Z,100463.25
2023-04-16T20:06:20.640Z,100456.69
2023-04-16T20:08:23.358Z,100462.63
2023-04-16T20:10:26.768Z,100460.16
2023-04-16T20:12:29.596Z,100463.97
2023-04-16T20:14:32.256Z,100470.22
2023-04-16T20:16:38.758Z,100468.25
2023-04-16T20:18:41.684Z,100476.19
2023-04-16T20:20:44.503Z,100471.00
2023-04-16T20:22:47.155Z,100466.09
2023-04-16T20:24:49.982Z,100474.50
2023-04-16T20:26:52.817Z,100471.50
2023-04-16T20:28:55.607Z,100477.22
2023-04-16T20:30:58.767Z,100485.66
2023-04-16T20:33:01.602Z,100471.47
2023-04-16T20:35:05.806Z,100478.28
2023-04-16T20:37:08.521Z,100482.09
2023-04-16T20:39:11.822Z,100476.91
2023-04-16T20:41:21.375Z,100484.50
2023-04-16T20:43:26.209Z,100485.06
2023-04-16T20:45:32.482Z,100484.50
2023-04-16T20:47:35.548Z,100488.00
2023-04-16T20:49:46.427Z,100493.47
2023-04-16T20:51:49.385Z,100488.28
2023-04-16T20:53:52.400Z,100489.66
2023-04-16T20:55:55.550Z,100484.97
2023-04-16T20:57:58.269Z,100491.25
2023-04-16T21:00:01.064Z,100490.44
2023-04-16T21:02:05.155Z,100486.03
2023-04-16T21:04:08.119Z,100483.84
2023-04-16T21:06:14.599Z,100494.75
2023-04-16T21:08:18.344Z,100489.56
2023-04-16T21:10:21.226Z,100487.94
2023-04-16T21:12:25.308Z,100487.38
2023-04-16T21:14:28.052Z,100485.72
2023-04-16T21:16:31.135Z,100497.69
2023-04-16T21:18:35.104Z,100502.59
2023-04-16T21:20:38.296Z,100497.66
2023-04-16T21:22:40.922Z,100496.00
2023-04-16T21:24:43.839Z,100498.75
2023-04-16T21:26:46.524Z,100501.19
2023-04-16T21:28:49.215Z,100495.72
2023-04-16T21:30:52.612Z,100495.16
2023-04-16T21:32:55.469Z,100491.06
2023-04-16T21:34:58.309Z,100480.91
2023-04-16T21:37:01.166Z,100483.94
2023-04-16T21:39:04.067Z,100488.56
2023-04-16T21:41:06.813Z,100491.81
2023-04-16T21:43:09.801Z,100490.13
2023-04-16T21:45:14.684Z,100498.84
2023-04-16T21:47:17.453Z,100496.38
2023-04-16T21:49:20.256Z,100495.81
2023-04-16T21:51:29.418Z,100502.34
2023-04-16T21:53:33.554Z,100503.44
2023-04-16T21:55:36.572Z,100502.88
2023-04-16T21:57:40.159Z,100497.94
2023-04-16T21:59:43.118Z,100508.00
2023-04-16T22:01:46.068Z,100510.44
2023-04-16T22:03:52.204Z,100509.88
2023-04-16T22:06:01.250Z,100508.22
2023-04-16T22:08:16.929Z,100510.91
2023-04-16T22:10:20.309Z,100511.72
2023-04-16T22:12:23.363Z,100516.88
2023-04-16T22:14:27.936Z,100517.94
2023-04-16T22:16:31.238Z,100513.03
2023-04-16T22:18:34.113Z,100522.28
2023-04-16T22:20:39.349Z,100525.50
2023-04-16T22:22:43.201Z,100524.69
2023-04-16T22:24:45.910Z,100526.63
2023-04-16T22:26:48.663Z,100528.00
2023-04-16T22:28:51.804Z,100518.94
2023-04-16T22:30:54.420Z,100530.69
2023-04-16T22:32:57.891Z,100524.69
2023-04-16T22:35:00.998Z,100530.06
2023-04-16T22:37:04.033Z,100536.03
2023-04-16T22:39:08.778Z,100532.19
2023-04-16T22:41:12.001Z,100531.84
2023-04-16T22:43:14.930Z,100526.38
2023-04-16T22:45:17.690Z,100537.25
2023-04-16T22:47:21.687Z,100535.06
2023-04-16T22:49:24.525Z,100538.88
2023-04-16T22:51:27.227Z,100537.19
2023-04-16T22:53:29.961Z,100530.94
2023-04-16T22:55:32.691Z,100535.56
2023-04-16T22:57:35.439Z,100538.28
2023-04-16T22:59:38.113Z,100538.53
2023-04-16T23:01:42.333Z,100539.34
2023-04-16T23:03:45.223Z,100544.53
2023-04-16T23:05:48.928Z,100538.88
2023-04-16T23:07:51.605Z,100542.97
2023-04-16T23:09:54.262Z,100538.34
2023-04-16T23:11:57.605Z,100539.47
2023-04-16T23:14:00.218Z,100541.13
2023-04-16T23:16:02.954Z,100545.47
2023-04-16T23:18:05.825Z,100545.75
2023-04-16T23:20:10.263Z,100548.19
2023-04-16T23:22:13.062Z,100549.03
2023-04-16T23:24:15.996Z,100547.13
2023-04-16T23:26:18.842Z,100543.59
2023-04-16T23:28:22.429Z,100544.66
2023-04-16T23:30:25.075Z,100547.38
2023-04-16T23:32:27.994Z,100553.09
2023-04-16T23:34:30.960Z,100555.25
2023-04-16T23:36:33.620Z,100558.78